createdAt,value
2023-02-06T00:00:26.031Z,10.00
2023-02-06T00:02:53.407Z,11.33
2023-02-06T00:05:22.156Z,11.90
2023-02-06T00:07:49.575Z,13.37
2023-02-06T00:10:17.043Z,10.73
2023-02-06T00:12:44.480Z,12.37
2023-02-06T00:15:12.038Z,10.33
2023-02-06T00:17:39.506Z,10.47
2023-02-06T00:20:09.005Z,12.70
2023-02-06T00:22:37.794Z,10.07
2023-02-06T00:25:06.280Z,12.17
2023-02-06T00:27:34.118Z,13.27
2023-02-06T00:30:01.723Z,14.50
2023-02-06T00:32:29.203Z,14.53
2023-02-06T00:34:56.675Z,12.10
2023-02-06T00:37:24.199Z,10.73
2023-02-06T00:39:53.027Z,11.47
2023-02-06T00:42:20.653Z,12.30
2023-02-06T00:44:48.044Z,11.67
2023-02-06T00:47:15.519Z,10.53
2023-02-06T00:49:42.976Z,11.97
2023-02-06T00:52:10.414Z,12.70
2023-02-06T00:54:37.864Z,11.50
2023-02-06T00:57:06.658Z,12.37
2023-02-06T00:59:34.136Z,9.43
2023-02-06T01:02:01.663Z,12.63
2023-02-06T01:04:29.120Z,9.83
2023-02-06T01:06:56.506Z,11.90
2023-02-06T01:09:23.902Z,14.47
2023-02-06T01:11:51.544Z,12.57
2023-02-06T01:14:20.316Z,13.03
2023-02-06T01:16:47.752Z,14.17
2023-02-06T01:19:15.169Z,13.90
2023-02-06T01:21:42.640Z,24.00
2023-02-06T01:24:10.037Z,13.53
2023-02-06T01:26:37.484Z,12.03
2023-02-06T01:29:05.109Z,12.57
2023-02-06T01:31:34.653Z,11.23
2023-02-06T01:34:02.062Z,11.07
2023-02-06T01:36:30.151Z,12.73
2023-02-06T01:38:57.601Z,10.73
2023-02-06T01:41:25.097Z,10.63
2023-02-06T01:44:11.627Z,13.97
2023-02-06T01:46:41.840Z,10.30
2023-02-06T01:49:12.652Z,12.33
2023-02-06T01:51:41.240Z,10.67
2023-02-06T01:54:10.541Z,11.20
2023-02-06T01:56:43.860Z,12.83
2023-02-06T01:59:12.704Z,14.53
2023-02-06T02:01:41.978Z,18.70
2023-02-06T02:04:15.833Z,12.17
2023-02-06T02:06:43.328Z,13.37
2023-02-06T02:09:10.744Z,13.23
2023-02-06T02:11:41.793Z,13.60
2023-02-06T02:14:13.679Z,13.20
2023-02-06T02:16:52.306Z,11.20
2023-02-06T02:19:50.910Z,12.83
2023-02-06T02:22:39.685Z,11.63
2023-02-06T02:25:25.557Z,12.47
2023-02-06T02:28:12.725Z,14.57
2023-02-06T02:31:07.974Z,12.27
2023-02-06T02:34:01.632Z,11.57
2023-02-06T02:36:35.897Z,12.47
2023-02-06T02:39:12.941Z,10.77
2023-02-06T02:41:45.884Z,10.63
2023-02-06T02:44:21.090Z,14.40
2023-02-06T02:46:52.435Z,9.43
2023-02-06T02:49:25.283Z,9.37
2023-02-06T02:51:54.101Z,9.63
2023-02-06T02:54:21.571Z,9.40
2023-02-06T02:56:49.301Z,11.97
2023-02-06T02:59:23.701Z,10.63
2023-02-06T03:01:57.135Z,8.87
2023-02-06T03:04:28.640Z,9.20
2023-02-06T03:07:09.437Z,26.50
2023-02-06T03:09:49.023Z,11.43
2023-02-06T03:12:22.998Z,8.37
2023-02-06T03:14:55.860Z,10.83
2023-02-06T03:17:33.962Z,8.83
2023-02-06T03:20:03.577Z,9.23
2023-02-06T03:22:35.735Z,8.77
2023-02-06T03:25:03.967Z,9.03
2023-02-06T03:27:33.262Z,9.07
2023-02-06T03:30:03.962Z,9.43
2023-02-06T03:32:35.296Z,8.37
2023-02-06T03:35:08.060Z,8.90
2023-02-06T03:37:38.238Z,9.20
2023-02-06T03:40:08.580Z,10.47
2023-02-06T03:42:40.511Z,9.83
2023-02-06T03:45:14.122Z,10.50
2023-02-06T03:47:44.353Z,8.37
2023-02-06T03:50:13.336Z,6.63
2023-02-06T03:52:46.289Z,7.10
2023-02-06T03:55:15.901Z,9.23
2023-02-06T03:57:48.573Z,8.63
2023-02-06T04:00:16.793Z,8.33
2023-02-06T04:02:47.469Z,7.07
2023-02-06T04:05:15.051Z,7.43
2023-02-06T04:07:44.265Z,7.70
2023-02-06T04:10:12.101Z,7.50
2023-02-06T04:12:39.833Z,9.70
2023-02-06T04:15:07.996Z,8.27
2023-02-06T04:17:57.540Z,7.90
2023-02-06T04:20:22.899Z,8.77
2023-02-06T04:22:51.713Z,8.70
2023-02-06T04:25:19.361Z,7.70
2023-02-06T04:27:46.898Z,7.63
2023-02-06T04:30:15.672Z,7.63
2023-02-06T04:32:43.162Z,8.37
2023-02-06T04:35:11.199Z,9.20
2023-02-06T04:37:38.673Z,6.73
2023-02-06T04:40:08.433Z,8.67
2023-02-06T04:42:35.862Z,6.93
2023-02-06T04:45:03.275Z,6.13
2023-02-06T04:47:30.735Z,6.90
2023-02-06T04:49:58.122Z,7.77
2023-02-06T04:52:25.705Z,8.97
2023-02-06T04:54:53.141Z,10.17
2023-02-06T04:57:21.885Z,9.20
2023-02-06T04:59:49.313Z,7.77
2023-02-06T05:02:16.770Z,10.67
2023-02-06T05:04:44.244Z,9.80
2023-02-06T05:07:11.740Z,17.43
2023-02-06T05:09:39.184Z,7.87
2023-02-06T05:12:06.928Z,7.17
2023-02-06T05:14:35.720Z,10.10
2023-02-06T05:17:03.142Z,9.33
2023-02-06T05:19:30.530Z,8.87
2023-02-06T05:21:57.982Z,10.40
2023-02-06T05:24:25.483Z,10.73
2023-02-06T05:26:52.961Z,9.63
2023-02-06T05:29:20.378Z,10.30
2023-02-06T05:31:49.125Z,10.70
2023-02-06T05:34:16.525Z,9.30
2023-02-06T05:36:44.015Z,11.03
2023-02-06T05:39:11.437Z,9.53
2023-02-06T05:41:38.931Z,11.13
2023-02-06T05:44:06.557Z,10.50
2023-02-06T05:46:34.070Z,12.60
2023-02-06T05:49:02.874Z,10.47
2023-02-06T05:51:30.242Z,10.17
2023-02-06T05:53:57.679Z,8.40
2023-02-06T05:56:25.103Z,10.63
2023-02-06T05:58:52.571Z,10.53
2023-02-06T06:01:20.269Z,12.27
2023-02-06T06:03:47.808Z,9.60
2023-02-06T06:06:16.677Z,12.27
2023-02-06T06:08:44.153Z,13.67
2023-02-06T06:11:11.579Z,10.50
2023-02-06T06:13:39.016Z,9.70
2023-02-06T06:16:06.709Z,13.00
2023-02-06T06:18:34.228Z,12.00
2023-02-06T06:21:01.626Z,12.23
2023-02-06T06:23:30.429Z,13.37
2023-02-06T06:25:57.882Z,10.70
2023-02-06T06:28:25.335Z,12.80
2023-02-06T06:30:52.744Z,13.43
2023-02-06T06:33:20.142Z,10.90
2023-02-06T06:35:47.574Z,15.40
2023-02-06T06:38:15.362Z,12.53
2023-02-06T06:40:44.127Z,13.47
2023-02-06T06:43:11.574Z,15.27
2023-02-06T06:45:39.408Z,13.20
2023-02-06T06:48:07.116Z,14.60
2023-02-06T06:50:34.583Z,15.57
2023-02-06T06:53:02.020Z,14.23
2023-02-06T06:55:29.557Z,18.37
2023-02-06T06:57:58.401Z,13.03
2023-02-06T07:00:25.969Z,13.50
2023-02-06T07:02:53.495Z,12.93
2023-02-06T07:05:21.083Z,20.20
2023-02-06T07:07:48.542Z,15.37
2023-02-06T07:10:16.337Z,18.90
2023-02-06T07:12:43.765Z,17.17
2023-02-06T07:15:12.547Z,16.13
2023-02-06T07:17:40.072Z,20.33
2023-02-06T07:20:08.088Z,19.17
2023-02-06T07:22:35.493Z,18.37
2023-02-06T07:25:02.955Z,19.27
2023-02-06T07:27:30.453Z,16.13
2023-02-06T07:29:57.866Z,18.70
2023-02-06T07:32:26.723Z,19.30
2023-02-06T07:34:54.113Z,17.67
2023-02-06T07:37:21.532Z,16.60
2023-02-06T07:39:48.957Z,19.57
2023-02-06T07:42:16.381Z,17.63
2023-02-06T07:44:43.781Z,18.60
2023-02-06T07:47:11.492Z,16.67
2023-02-06T07:49:40.297Z,17.33
2023-02-06T07:52:07.791Z,18.97
2023-02-06T07:54:35.220Z,15.27
2023-02-06T07:57:02.695Z,17.13
2023-02-06T07:59:30.123Z,19.67
2023-02-06T08:01:57.537Z,15.07
2023-02-06T08:04:24.977Z,19.07
2023-02-06T08:06:53.714Z,20.73
2023-02-06T08:09:21.137Z,16.80
2023-02-06T08:11:48.612Z,14.67
2023-02-06T08:14:16.063Z,15.70
2023-02-06T08:16:43.710Z,16.13
2023-02-06T08:19:12.311Z,15.70
2023-02-06T08:21:40.008Z,18.40
2023-02-06T08:24:12.149Z,15.97
2023-02-06T08:26:40.095Z,15.87
2023-02-06T08:29:08.725Z,15.17
2023-02-06T08:31:38.660Z,18.27
2023-02-06T08:34:06.969Z,19.23
2023-02-06T08:36:35.126Z,19.00
2023-02-06T08:39:04.536Z,18.10
2023-02-06T08:41:37.016Z,20.57
2023-02-06T08:44:07.137Z,17.80
2023-02-06T08:46:35.187Z,17.90
2023-02-06T08:49:04.935Z,22.17
2023-02-06T08:51:32.991Z,18.20
2023-02-06T08:54:02.132Z,20.57
2023-02-06T08:56:34.036Z,22.53
2023-02-06T08:59:02.033Z,20.17
2023-02-06T09:01:31.570Z,22.17
2023-02-06T09:04:03.806Z,21.10
2023-02-06T09:06:32.027Z,35.43
2023-02-06T09:08:59.430Z,26.50
2023-02-06T09:11:27.627Z,23.43
2023-02-06T09:13:57.976Z,31.40
2023-02-06T09:16:26.414Z,24.73
2023-02-06T09:18:54.676Z,28.87
2023-02-06T09:21:23.937Z,27.43
2023-02-06T09:23:53.419Z,25.13
2023-02-06T09:26:23.252Z,25.90
2023-02-06T09:28:53.007Z,29.33
2023-02-06T09:31:22.061Z,34.50
2023-02-06T09:33:49.628Z,31.63
2023-02-06T09:36:19.693Z,28.93
2023-02-06T09:38:49.053Z,35.93
2023-02-06T09:41:19.078Z,32.90
2023-02-06T09:43:51.577Z,33.67
2023-02-06T09:46:26.861Z,31.73
2023-02-06T09:48:56.258Z,33.57
2023-02-06T09:51:31.646Z,32.70
2023-02-06T09:54:06.920Z,31.00
2023-02-06T09:56:40.218Z,26.70
2023-02-06T09:59:17.080Z,29.73
2023-02-06T10:01:53.372Z,27.73
2023-02-06T10:04:35.184Z,29.70
2023-02-06T10:07:15.621Z,33.63
2023-02-06T10:09:48.950Z,28.57
2023-02-06T10:12:24.746Z,22.27
2023-02-06T10:14:56.666Z,22.17
2023-02-06T10:17:30.044Z,26.93
2023-02-06T10:20:03.192Z,30.97
2023-02-06T10:22:38.732Z,26.43
2023-02-06T10:25:19.188Z,27.00
2023-02-06T10:27:50.295Z,24.87
2023-02-06T10:30:20.911Z,25.37
2023-02-06T10:33:00.048Z,28.47
2023-02-06T10:35:40.325Z,28.17
2023-02-06T10:38:28.242Z,26.20
2023-02-06T10:41:04.421Z,30.70
2023-02-06T10:43:40.427Z,26.13
2023-02-06T10:46:28.288Z,23.97
2023-02-06T10:49:03.426Z,27.07
2023-02-06T10:51:33.667Z,23.87
2023-02-06T10:54:04.045Z,25.60
2023-02-06T10:56:36.686Z,23.57
2023-02-06T10:59:07.977Z,26.67
2023-02-06T11:01:37.908Z,25.60
2023-02-06T11:04:14.958Z,25.80
2023-02-06T11:06:45.918Z,25.77
2023-02-06T11:09:13.691Z,28.43
2023-02-06T11:11:43.093Z,28.93
2023-02-06T11:14:16.796Z,43.07
2023-02-06T11:16:45.394Z,26.83
2023-02-06T11:19:18.522Z,23.57
2023-02-06T11:21:57.778Z,20.80
2023-02-06T11:24:25.998Z,23.17
2023-02-06T11:26:57.267Z,32.80
2023-02-06T11:29:28.292Z,26.50
2023-02-06T11:31:59.235Z,23.00
2023-02-06T11:34:32.253Z,29.07
2023-02-06T11:37:02.491Z,21.50
2023-02-06T11:39:32.395Z,23.83
2023-02-06T11:42:05.334Z,30.33
2023-02-06T11:44:40.928Z,30.33
2023-02-06T11:47:21.748Z,25.33
2023-02-06T11:49:50.483Z,27.17
2023-02-06T11:52:30.143Z,27.50
2023-02-06T11:55:02.739Z,28.93
2023-02-06T11:57:31.892Z,29.53
2023-02-06T12:00:01.557Z,24.33
2023-02-06T12:02:32.551Z,23.30
2023-02-06T12:05:12.775Z,25.17
2023-02-06T12:07:45.214Z,26.63
2023-02-06T12:10:15.949Z,30.60
2023-02-06T12:12:47.100Z,26.20
2023-02-06T12:15:43.633Z,24.57
2023-02-06T12:18:10.663Z,27.83
2023-02-06T12:20:48.478Z,25.77
2023-02-06T12:23:21.697Z,30.40
2023-02-06T12:25:51.131Z,29.93
2023-02-06T12:28:22.095Z,27.55
2023-02-06T12:30:55.763Z,26.77
2023-02-06T12:33:33.288Z,28.50
2023-02-06T12:36:07.957Z,32.87
2023-02-06T12:38:43.733Z,29.23
2023-02-06T12:41:24.823Z,28.90
2023-02-06T12:43:57.050Z,29.83
2023-02-06T12:46:28.161Z,34.40
2023-02-06T12:49:02.164Z,33.77
2023-02-06T12:51:37.106Z,27.03
2023-02-06T12:54:12.225Z,28.27
2023-02-06T12:56:43.605Z,29.07
2023-02-06T12:59:57.656Z,29.20
2023-02-06T13:02:48.963Z,25.13
2023-02-06T13:05:22.093Z,24.50
2023-02-06T13:07:52.573Z,29.90
2023-02-06T13:10:21.738Z,24.17
2023-02-06T13:12:55.387Z,24.03
2023-02-06T13:15:25.934Z,24.27
2023-02-06T13:17:55.458Z,27.47
2023-02-06T13:20:25.298Z,25.93
2023-02-06T13:22:56.118Z,26.77
2023-02-06T13:25:47.508Z,26.47
2023-02-06T13:28:41.299Z,26.73
2023-02-06T13:31:22.974Z,26.67
2023-02-06T13:33:53.653Z,26.10
2023-02-06T13:36:28.525Z,25.50
2023-02-06T13:38:58.159Z,25.20
2023-02-06T13:41:31.698Z,26.87
2023-02-06T13:44:03.393Z,22.93
2023-02-06T13:46:57.627Z,26.73
2023-02-06T13:49:59.213Z,26.60
2023-02-06T13:52:36.324Z,28.13
2023-02-06T13:55:18.506Z,24.30
2023-02-06T13:58:04.858Z,26.10
2023-02-06T14:00:33.984Z,27.53
2023-02-06T14:03:08.049Z,30.67
2023-02-06T14:05:55.684Z,22.77
2023-02-06T14:08:30.842Z,22.50
2023-02-06T14:11:20.124Z,23.47
2023-02-06T14:14:17.290Z,28.80
2023-02-06T14:16:50.385Z,24.40
2023-02-06T14:19:26.481Z,22.13
2023-02-06T14:22:04.103Z,26.23
2023-02-06T14:24:47.961Z,20.43
2023-02-06T14:27:31.465Z,20.40
2023-02-06T14:30:15.698Z,25.93
2023-02-06T14:32:49.908Z,20.43
2023-02-06T14:35:32.494Z,19.17
2023-02-06T14:38:23.972Z,21.00
2023-02-06T14:40:53.513Z,19.60
2023-02-06T14:43:26.611Z,21.70
2023-02-06T14:46:06.939Z,20.27
2023-02-06T14:48:40.955Z,21.47
2023-02-06T14:51:19.075Z,22.73
2023-02-06T14:53:53.251Z,22.13
2023-02-06T14:56:29.222Z,21.87
2023-02-06T14:58:58.099Z,24.30
2023-02-06T15:01:28.643Z,21.57
2023-02-06T15:04:10.525Z,22.17
2023-02-06T15:06:39.890Z,17.70
2023-02-06T15:09:08.626Z,19.60
2023-02-06T15:11:36.399Z,21.50
2023-02-06T15:14:08.963Z,21.27
2023-02-06T15:16:46.865Z,19.40
2023-02-06T15:19:19.906Z,21.00
2023-02-06T15:21:47.951Z,16.40
2023-02-06T15:24:34.187Z,15.73
2023-02-06T15:27:08.807Z,17.73
2023-02-06T15:29:38.195Z,17.03
2023-02-06T15:32:08.565Z,17.17
2023-02-06T15:34:36.364Z,16.33
2023-02-06T15:37:22.712Z,19.17
2023-02-06T15:39:51.020Z,17.57
2023-02-06T15:42:20.627Z,20.37
2023-02-06T15:44:50.755Z,17.83
2023-02-06T15:47:20.237Z,16.60
2023-02-06T15:49:50.053Z,19.40
2023-02-06T15:52:34.208Z,19.40
2023-02-06T15:55:01.986Z,22.90
2023-02-06T15:57:33.158Z,24.47
2023-02-06T16:00:02.965Z,22.33
2023-02-06T16:02:34.060Z,26.97
2023-02-06T16:05:03.481Z,21.13
2023-02-06T16:07:33.540Z,22.07
2023-02-06T16:10:06.016Z,22.13
2023-02-06T16:12:35.286Z,20.30
2023-02-06T16:15:25.177Z,19.10
2023-02-06T16:17:52.802Z,18.73
2023-02-06T16:20:33.190Z,18.57
2023-02-06T16:23:21.688Z,20.90
2023-02-06T16:25:59.704Z,18.37
2023-02-06T16:28:28.283Z,19.33
2023-02-06T16:30:59.563Z,20.57
2023-02-06T16:33:35.013Z,21.70
2023-02-06T16:36:06.260Z,20.13
2023-02-06T16:38:34.312Z,20.23
2023-02-06T16:41:02.071Z,19.33
2023-02-06T16:43:31.612Z,21.23
2023-02-06T16:46:02.761Z,19.13
2023-02-06T16:48:30.226Z,18.37
2023-02-06T16:50:57.726Z,19.17
2023-02-06T16:53:26.638Z,20.67
2023-02-06T16:55:54.184Z,19.27
2023-02-06T16:58:24.228Z,19.47
2023-02-06T17:00:52.433Z,18.73
2023-02-06T17:03:21.338Z,19.63
2023-02-06T17:05:52.155Z,18.00
2023-02-06T17:08:22.318Z,21.00
2023-02-06T17:10:49.889Z,19.13
2023-02-06T17:13:19.474Z,20.73
2023-02-06T17:15:48.062Z,22.30
2023-02-06T17:18:18.167Z,16.93
2023-02-06T17:20:48.695Z,16.17
2023-02-06T17:23:16.585Z,18.90
2023-02-06T17:25:46.265Z,22.17
2023-02-06T17:28:16.693Z,19.00
2023-02-06T17:30:45.652Z,18.63
2023-02-06T17:33:13.395Z,17.77
2023-02-06T17:35:40.823Z,20.23
2023-02-06T17:38:10.672Z,18.20
2023-02-06T17:40:40.254Z,21.17
2023-02-06T17:43:07.992Z,18.63
2023-02-06T17:45:38.079Z,21.73
2023-02-06T17:48:06.641Z,21.97
2023-02-06T17:50:36.815Z,28.93
2023-02-06T17:53:05.870Z,21.90
2023-02-06T17:55:36.516Z,21.43
2023-02-06T17:58:04.229Z,21.23
2023-02-06T18:00:32.037Z,21.13
2023-02-06T18:03:00.901Z,21.97
2023-02-06T18:05:28.801Z,21.73
2023-02-06T18:07:56.269Z,23.33
2023-02-06T18:10:25.978Z,23.53
2023-02-06T18:12:54.819Z,21.20
2023-02-06T18:15:22.323Z,22.80
2023-02-06T18:17:49.875Z,23.60
2023-02-06T18:20:17.775Z,25.93
2023-02-06T18:22:45.324Z,20.37
2023-02-06T18:25:14.931Z,24.47
2023-02-06T18:27:45.479Z,29.50
2023-02-06T18:30:17.128Z,27.87
2023-02-06T18:32:44.763Z,20.53
2023-02-06T18:35:12.379Z,22.27
2023-02-06T18:37:39.815Z,22.50
2023-02-06T18:40:07.836Z,22.93
2023-02-06T18:42:58.150Z,23.50
2023-02-06T18:45:31.159Z,27.30
2023-02-06T18:47:58.595Z,23.23
2023-02-06T18:50:26.005Z,22.33
2023-02-06T18:52:53.430Z,23.07
2023-02-06T18:55:21.279Z,25.43
2023-02-06T18:57:49.491Z,24.80
2023-02-06T19:00:19.082Z,28.17
2023-02-06T19:02:48.183Z,25.43
2023-02-06T19:05:16.140Z,26.57
2023-02-06T19:07:43.566Z,25.30
2023-02-06T19:10:13.005Z,23.53
2023-02-06T19:12:40.644Z,27.93
2023-02-06T19:15:09.134Z,29.10
2023-02-06T19:17:36.649Z,22.67
2023-02-06T19:20:08.469Z,29.83
2023-02-06T19:22:36.416Z,27.97
2023-02-06T19:25:05.917Z,25.27
2023-02-06T19:27:33.305Z,104.53
2023-02-06T19:30:00.754Z,101.63
2023-02-06T19:32:29.115Z,30.37
2023-02-06T19:34:57.814Z,25.37
2023-02-06T19:37:26.546Z,31.73
2023-02-06T19:39:54.012Z,29.63
2023-02-06T19:42:21.474Z,28.90
2023-02-06T19:44:52.588Z,30.57
2023-02-06T19:47:19.990Z,28.43
2023-02-06T19:49:50.500Z,34.17
2023-02-06T19:52:18.127Z,31.67
2023-02-06T19:54:47.739Z,29.93
2023-02-06T19:57:15.950Z,29.90
2023-02-06T19:59:43.420Z,31.80
2023-02-06T20:02:15.413Z,30.37
2023-02-06T20:04:45.113Z,27.60
2023-02-06T20:07:12.798Z,32.73
2023-02-06T20:09:41.910Z,33.73
2023-02-06T20:12:12.388Z,28.10
2023-02-06T20:14:40.000Z,32.50
2023-02-06T20:17:07.453Z,33.80
2023-02-06T20:19:34.886Z,32.53
2023-02-06T20:22:03.080Z,31.50
2023-02-06T20:24:32.685Z,34.40
2023-02-06T20:27:02.477Z,32.10
2023-02-06T20:29:34.152Z,29.87
2023-02-06T20:32:01.943Z,28.90
2023-02-06T20:34:29.930Z,30.27
2023-02-06T20:36:57.431Z,32.70
2023-02-06T20:39:26.227Z,34.57
2023-02-06T20:41:54.144Z,34.03
2023-02-06T20:44:22.391Z,33.03
2023-02-06T20:46:51.273Z,34.43
2023-02-06T20:49:20.506Z,35.50
2023-02-06T20:51:49.146Z,28.93
2023-02-06T20:54:17.031Z,27.43
2023-02-06T20:56:44.582Z,27.63
2023-02-06T20:59:14.089Z,32.13
2023-02-06T21:01:42.033Z,32.57
2023-02-06T21:04:13.378Z,31.27
2023-02-06T21:06:41.123Z,28.70
2023-02-06T21:09:09.877Z,31.40
2023-02-06T21:11:41.925Z,28.43
2023-02-06T21:14:10.185Z,32.73
2023-02-06T21:16:38.704Z,33.83
2023-02-06T21:19:08.243Z,34.63
2023-02-06T21:21:38.043Z,45.20
2023-02-06T21:24:06.297Z,35.57
2023-02-06T21:26:34.408Z,33.90
2023-02-06T21:29:03.736Z,33.37
2023-02-06T21:31:36.867Z,42.37
2023-02-06T21:34:09.018Z,33.03
2023-02-06T21:36:39.583Z,33.57
2023-02-06T21:39:10.839Z,37.00
2023-02-06T21:41:38.421Z,35.47
2023-02-06T21:44:06.267Z,37.63
2023-02-06T21:46:34.454Z,33.70
2023-02-06T21:49:01.977Z,42.40
2023-02-06T21:51:29.643Z,35.57
2023-02-06T21:53:58.794Z,35.23
2023-02-06T21:56:28.563Z,34.83
2023-02-06T21:58:56.446Z,32.10
2023-02-06T22:01:26.899Z,34.17
2023-02-06T22:03:55.239Z,33.37
2023-02-06T22:06:22.640Z,34.57
2023-02-06T22:08:52.805Z,31.40
2023-02-06T22:11:24.002Z,30.23
2023-02-06T22:13:53.967Z,30.73
2023-02-06T22:16:23.412Z,34.73
2023-02-06T22:18:53.628Z,34.93
2023-02-06T22:21:25.211Z,30.50
2023-02-06T22:23:53.319Z,29.23
2023-02-06T22:26:22.331Z,36.07
2023-02-06T22:28:50.435Z,27.87
2023-02-06T22:31:20.750Z,29.23
2023-02-06T22:33:50.777Z,29.93
2023-02-06T22:36:20.256Z,32.07
2023-02-06T22:38:49.042Z,32.20
2023-02-06T22:41:17.866Z,31.50
2023-02-06T22:43:47.271Z,30.40
2023-02-06T22:46:19.982Z,35.17
2023-02-06T22:48:48.076Z,33.27
2023-02-06T22:51:15.922Z,35.97
2023-02-06T22:53:44.561Z,38.07
2023-02-06T22:56:31.200Z,42.73
2023-02-06T22:59:03.177Z,31.63
2023-02-06T23:01:33.161Z,34.10
2023-02-06T23:04:04.953Z,35.50
2023-02-06T23:06:34.087Z,31.47
2023-02-06T23:09:04.100Z,33.87
2023-02-06T23:11:32.424Z,36.73
2023-02-06T23:14:03.746Z,35.10
2023-02-06T23:16:33.027Z,33.67
2023-02-06T23:19:04.384Z,32.47
2023-02-06T23:21:33.768Z,31.50
2023-02-06T23:24:01.622Z,30.17
2023-02-06T23:26:29.706Z,34.27
2023-02-06T23:28:58.154Z,33.13
2023-02-06T23:31:28.384Z,33.73
2023-02-06T23:33:56.042Z,35.87
2023-02-06T23:36:26.578Z,32.93
2023-02-06T23:38:54.719Z,32.30
2023-02-06T23:41:24.442Z,34.50
2023-02-06T23:43:52.993Z,33.70
2023-02-06T23:46:27.230Z,32.40
2023-02-06T23:48:55.377Z,33.13
2023-02-06T23:51:24.111Z,29.87
2023-02-06T23:53:52.391Z,28.03
2023-02-06T23:56:23.257Z,27.93
2023-02-06T23:58:51.166Z,29.57
